Time;durP1;ratioP1;P1;durP2;ratioP2;P2;SDS_P1;SDS_P2;PMS_P1;PMS_P2;Temp;Humidity;BMP_temperature;BMP_pressure;BME280_temperature;BME280_humidity;BME280_pressure;Samples;Min_cycle;Max_cycle;Signal;HPM_P1;HPM_P2
2023/03/23 00:01:04;;;;;;;4.40;1.50;;;18.20;1.00;;;;;;5074643;28;20555;-36
2023/03/23 00:03:34;;;;;;;5.10;1.40;;;18.10;1.00;;;;;;5073890;28;20109;-36
2023/03/23 00:06:04;;;;;;;3.47;1.00;;;18.20;1.00;;;;;;5074469;28;20040;-36
2023/03/23 00:08:37;;;;;;;7.95;1.60;;;18.20;1.00;;;;;;5074603;28;20032;-35
2023/03/23 00:11:07;;;;;;;5.28;1.27;;;18.20;1.00;;;;;;5074454;28;20028;-35
2023/03/23 00:13:33;;;;;;;4.97;1.10;;;18.10;1.00;;;;;;5073499;28;20097;-35
2023/03/23 00:15:59;;;;;;;5.25;1.15;;;18.10;1.00;;;;;;5074405;28;20070;-35
2023/03/23 00:18:25;;;;;;;6.03;1.88;;;18.10;1.00;;;;;;5074292;28;20033;-34
2023/03/23 00:20:53;;;;;;;3.13;1.33;;;18.10;1.00;;;;;;5056444;28;20032;-35
2023/03/23 00:23:21;;;;;;;6.65;2.03;;;18.10;1.00;;;;;;5073450;28;20033;-35
2023/03/23 00:25:48;;;;;;;7.65;1.25;;;18.10;1.00;;;;;;5074229;28;20051;-35
2023/03/23 00:28:16;;;;;;;7.00;1.85;;;18.00;1.00;;;;;;5074013;28;20033;-35
2023/03/23 00:30:44;;;;;;;4.55;1.00;;;18.00;1.00;;;;;;5074328;28;20032;-35
2023/03/23 00:33:13;;;;;;;3.72;1.80;;;18.00;1.00;;;;;;5055390;28;20040;-36
2023/03/23 00:35:40;;;;;;;6.38;2.13;;;18.00;1.00;;;;;;5074120;28;20070;-36
2023/03/23 00:38:06;;;;;;;2.42;1.10;;;18.00;1.00;;;;;;5056159;28;20040;-36
2023/03/23 00:40:35;;;;;;;4.05;0.95;;;18.00;1.00;;;;;;5055995;28;20332;-36
2023/03/23 00:43:03;;;;;;;4.57;0.98;;;18.00;1.00;;;;;;5073169;28;20041;-36
2023/03/23 00:45:29;;;;;;;5.78;1.40;;;17.90;1.00;;;;;;5073911;28;20119;-36
2023/03/23 00:47:56;;;;;;;7.47;1.70;;;17.90;1.00;;;;;;5055187;28;20076;-36
2023/03/23 00:50:23;;;;;;;5.47;1.48;;;17.90;1.00;;;;;;5055724;28;20123;-35
2023/03/23 00:52:52;;;;;;;3.05;1.42;;;17.90;1.00;;;;;;5054853;28;20044;-36
2023/03/23 00:55:18;;;;;;;4.40;1.08;;;17.90;1.00;;;;;;5073584;28;20518;-36
2023/03/23 00:57:43;;;;;;;4.75;1.58;;;17.90;1.00;;;;;;5073472;28;20024;-36
2023/03/23 01:00:10;;;;;;;5.13;1.70;;;17.80;1.00;;;;;;5055665;28;20043;-35
2023/03/23 01:02:36;;;;;;;4.93;1.20;;;17.80;1.00;;;;;;5055275;28;20036;-35
2023/03/23 01:05:04;;;;;;;3.70;0.60;;;17.80;1.00;;;;;;5039867;28;20032;-36
2023/03/23 01:07:31;;;;;;;6.90;2.03;;;17.80;1.00;;;;;;5040036;28;20451;-36
2023/03/23 01:09:57;;;;;;;2.22;1.33;;;17.80;1.00;;;;;;5053326;28;20033;-34
2023/03/23 01:12:24;;;;;;;5.05;1.02;;;17.80;1.00;;;;;;5025578;28;20029;-35
2023/03/23 01:14:51;;;;;;;7.03;1.52;;;17.80;1.00;;;;;;5046541;28;20040;-35
2023/03/23 01:17:18;;;;;;;7.28;1.40;;;17.70;1.00;;;;;;5055224;28;20032;-36
2023/03/23 01:19:44;;;;;;;5.88;1.42;;;17.70;1.00;;;;;;5055320;28;20441;-35
2023/03/23 01:22:10;;;;;;;4.43;1.60;;;17.70;1.00;;;;;;5054995;28;20040;-36
2023/03/23 01:24:36;;;;;;;7.13;1.63;;;17.70;1.00;;;;;;5054408;28;20041;-35
2023/03/23 01:27:06;;;;;;;4.68;1.15;;;17.70;1.00;;;;;;5073008;28;20127;-36
2023/03/23 01:29:35;;;;;;;5.88;1.33;;;17.70;1.00;;;;;;5055228;28;20036;-36
2023/03/23 01:32:02;;;;;;;5.22;1.17;;;17.70;1.00;;;;;;5072811;28;20093;-36
2023/03/23 01:34:29;;;;;;;3.85;1.45;;;17.60;1.00;;;;;;5072157;28;20047;-35
2023/03/23 01:36:55;;;;;;;4.25;1.33;;;17.70;1.00;;;;;;5054692;28;20033;-35
2023/03/23 01:39:20;;;;;;;6.13;1.98;;;17.60;1.00;;;;;;5072773;28;20054;-35
2023/03/23 01:41:46;;;;;;;5.97;1.27;;;17.60;1.00;;;;;;5054813;28;20044;-35
2023/03/23 01:44:17;;;;;;;3.50;1.60;;;17.60;1.00;;;;;;5054072;28;20036;-34
2023/03/23 01:46:48;;;;;;;3.45;1.40;;;17.60;1.00;;;;;;5054573;28;20507;-35
2023/03/23 01:49:21;;;;;;;4.60;1.13;;;17.50;1.00;;;;;;5038070;28;20110;-35
2023/03/23 01:51:55;;;;;;;4.82;1.08;;;17.60;1.00;;;;;;5054564;28;20044;-35
2023/03/23 01:54:23;;;;;;;4.78;1.65;;;17.50;1.00;;;;;;5071869;28;20040;-35
2023/03/23 01:56:58;;;;;;;5.70;1.45;;;17.50;1.00;;;;;;5038083;28;20438;-36
2023/03/23 01:59:26;;;;;;;3.88;1.20;;;17.50;1.00;;;;;;5053979;28;20404;-36
2023/03/23 02:02:14;;;;;;;4.20;0.98;;;17.50;1.00;;;;;;5040521;28;20051;-35
2023/03/23 02:04:41;;;;;;;4.97;1.70;;;17.40;1.00;;;;;;5071961;28;20504;-36
2023/03/23 02:07:08;;;;;;;4.97;1.40;;;17.40;1.00;;;;;;5054202;28;20402;-35
2023/03/23 02:09:34;;;;;;;4.10;1.40;;;17.40;1.00;;;;;;5037873;28;20059;-36
2023/03/23 02:12:00;;;;;;;4.18;0.95;;;17.40;1.00;;;;;;5054281;28;20246;-36
2023/03/23 02:14:28;;;;;;;4.80;1.40;;;17.40;1.00;;;;;;5053426;28;20035;-36
2023/03/23 02:17:05;;;;;;;4.22;1.67;;;17.40;1.00;;;;;;5054393;28;20097;-36
2023/03/23 02:20:12;;;;;;;10.55;2.17;;;17.40;1.00;;;;;;5037657;28;20094;-36
2023/03/23 02:22:48;;;;;;;3.85;1.85;;;17.40;1.00;;;;;;5053259;28;20170;-36
2023/03/23 02:25:49;;;;;;;6.15;1.65;;;17.40;1.00;;;;;;5035937;28;20040;-36
2023/03/23 02:28:35;;;;;;;4.55;1.67;;;17.40;1.00;;;;;;5052090;28;20099;-36
2023/03/23 02:31:06;;;;;;;4.60;1.30;;;17.30;1.00;;;;;;5034024;28;20048;-36
2023/03/23 02:33:40;;;;;;;5.35;1.02;;;17.30;1.00;;;;;;5033342;28;20033;-36
2023/03/23 02:36:22;;;;;;;4.65;1.13;;;17.30;1.00;;;;;;5033948;28;20107;-35
2023/03/23 02:39:17;;;;;;;5.78;2.15;;;17.30;1.00;;;;;;5033934;28;20044;-36
2023/03/23 02:41:53;;;;;;;6.05;1.67;;;17.30;1.00;;;;;;5014359;28;20103;-36
2023/03/23 02:44:19;;;;;;;7.47;2.05;;;17.30;1.00;;;;;;5033287;28;20519;-35
2023/03/23 02:46:45;;;;;;;6.90;2.30;;;17.30;1.00;;;;;;5017381;28;20496;-35
2023/03/23 02:49:15;;;;;;;4.47;1.45;;;17.20;1.00;;;;;;5033890;28;20036;-36
2023/03/23 02:51:45;;;;;;;2.92;1.77;;;17.20;1.00;;;;;;5033880;28;20124;-35
2023/03/23 02:54:12;;;;;;;4.72;2.53;;;17.20;1.00;;;;;;5032966;28;20128;-36
2023/03/23 02:56:39;;;;;;;4.22;1.17;;;17.20;1.00;;;;;;5033791;28;20087;-36
2023/03/23 02:59:11;;;;;;;;;;;17.20;1.00;;;;;;5034293;28;20029;-36
2023/03/23 03:01:38;;;;;;;4.65;1.75;;;17.20;1.00;;;;;;5033913;28;20215;-35
2023/03/23 03:04:12;;;;;;;3.38;1.23;;;17.10;1.00;;;;;;5033013;28;20514;-35
2023/03/23 03:06:56;;;;;;;4.32;1.90;;;17.10;1.00;;;;;;5033579;28;20040;-35
2023/03/23 03:09:29;;;;;;;4.72;1.73;;;17.10;1.00;;;;;;5052148;28;20041;-35
2023/03/23 03:12:04;;;;;;;6.35;1.40;;;17.20;1.00;;;;;;5037804;28;20045;-35
2023/03/23 03:14:36;;;;;;;5.00;1.30;;;17.10;1.00;;;;;;5036843;28;20040;-35
2023/03/23 03:17:25;;;;;;;5.32;1.70;;;17.10;1.00;;;;;;5037507;28;20033;-35
2023/03/23 03:19:57;;;;;;;6.78;1.25;;;17.10;1.00;;;;;;5037792;28;20373;-35
2023/03/23 03:22:28;;;;;;;4.25;1.65;;;17.10;1.00;;;;;;5037173;28;20041;-35
2023/03/23 03:24:58;;;;;;;2.95;0.95;;;17.10;1.00;;;;;;5037182;28;20033;-35
2023/03/23 03:27:24;;;;;;;5.15;1.27;;;17.10;1.00;;;;;;5037292;28;20451;-35
2023/03/23 03:30:07;;;;;;;5.55;1.60;;;17.10;1.00;;;;;;5037260;28;20049;-35
2023/03/23 03:32:46;;;;;;;5.18;1.25;;;17.00;1.00;;;;;;5036998;28;20037;-35
2023/03/23 03:35:12;;;;;;;7.95;1.48;;;17.00;1.00;;;;;;5037170;28;20040;-35
2023/03/23 03:37:39;;;;;;;5.97;2.38;;;17.00;1.00;;;;;;5037014;28;20029;-35
2023/03/23 03:40:13;;;;;;;6.65;1.50;;;17.00;1.00;;;;;;5037229;28;20036;-35
2023/03/23 03:42:42;;;;;;;7.18;1.50;;;17.00;1.00;;;;;;5054369;28;20543;-35
2023/03/23 03:45:11;;;;;;;5.78;2.20;;;17.00;1.00;;;;;;5037086;28;20044;-35
2023/03/23 03:47:37;;;;;;;5.60;1.35;;;17.00;1.00;;;;;;5020795;28;20040;-41
2023/03/23 03:50:04;;;;;;;8.15;2.15;;;17.00;1.00;;;;;;5036904;28;20036;-43
2023/03/23 03:52:31;;;;;;;6.55;1.80;;;17.00;1.00;;;;;;5036647;28;20484;-43
2023/03/23 03:54:57;;;;;;;7.88;1.30;;;17.00;1.00;;;;;;5036485;28;20029;-43
2023/03/23 03:57:24;;;;;;;4.72;1.60;;;16.90;1.00;;;;;;5036755;28;20048;-42
2023/03/23 04:00:14;;;;;;;2.45;1.42;;;17.00;1.00;;;;;;5054399;28;20400;-43
2023/03/23 04:02:42;;;;;;;5.93;1.92;;;16.90;1.00;;;;;;5053980;28;20044;-42
2023/03/23 04:05:09;;;;;;;5.70;1.65;;;16.90;1.00;;;;;;5036500;28;20045;-41
2023/03/23 04:07:38;;;;;;;9.15;1.80;;;16.90;1.00;;;;;;5036540;28;20040;-43
2023/03/23 04:10:06;;;;;;;6.65;1.70;;;16.90;1.00;;;;;;5036840;28;20442;-43
2023/03/23 04:12:34;;;;;;;6.13;2.30;;;16.90;1.00;;;;;;5054037;28;20503;-42
2023/03/23 04:15:18;;;;;;;7.07;1.63;;;16.90;1.00;;;;;;5039346;28;20329;-42
2023/03/23 04:17:45;;;;;;;8.73;1.60;;;16.90;1.00;;;;;;5054240;28;20034;-43
2023/03/23 04:20:17;;;;;;;6.65;1.80;;;16.90;1.00;;;;;;5036388;28;20036;-42
2023/03/23 04:22:51;;;;;;;5.43;1.63;;;16.90;1.00;;;;;;5034687;28;20037;-41
2023/03/23 04:25:22;;;;;;;5.25;1.35;;;16.90;1.00;;;;;;5036325;28;20045;-40
2023/03/23 04:27:54;;;;;;;6.80;1.40;;;16.90;1.00;;;;;;5054096;28;20045;-43
2023/03/23 04:30:34;;;;;;;5.15;1.40;;;16.90;1.00;;;;;;5036224;28;20049;-42
2023/03/23 04:33:03;;;;;;;11.68;1.90;;;16.80;1.00;;;;;;5053154;28;20048;-43
2023/03/23 04:35:29;;;;;;;6.28;1.77;;;16.80;1.00;;;;;;5036231;28;20052;-43
2023/03/23 04:38:20;;;;;;;7.18;1.95;;;16.80;1.00;;;;;;5053288;28;20053;-40
2023/03/23 04:40:52;;;;;;;;;;;16.80;1.00;;;;;;5036590;28;20044;-40
2023/03/23 04:43:45;;;;;;;12.38;1.83;;;16.80;1.00;;;;;;5050897;28;19917;-41
2023/03/23 04:46:30;;;;;;;8.82;1.98;;;16.80;1.00;;;;;;5035719;28;20112;-40
2023/03/23 04:49:00;;;;;;;10.70;2.53;;;16.80;1.00;;;;;;5035835;28;20374;-44
2023/03/23 04:51:32;;;;;;;9.35;2.25;;;16.80;1.00;;;;;;5035811;28;20048;-42
2023/03/23 04:54:09;;;;;;;10.95;2.10;;;16.80;1.00;;;;;;5034937;28;20037;-42
2023/03/23 04:56:37;;;;;;;6.95;2.30;;;16.70;1.00;;;;;;5035606;28;20516;-42
2023/03/23 04:59:09;;;;;;;8.43;1.90;;;16.70;1.00;;;;;;5035550;28;20044;-41
2023/03/23 05:01:47;;;;;;;7.78;1.98;;;16.70;1.00;;;;;;5035660;28;20041;-42
2023/03/23 05:04:17;;;;;;;8.05;2.28;;;16.70;1.00;;;;;;5034885;28;20037;-41
2023/03/23 05:06:57;;;;;;;6.97;2.03;;;16.70;1.00;;;;;;5035407;28;20045;-41
2023/03/23 05:09:27;;;;;;;8.52;1.58;;;16.70;1.00;;;;;;5035441;28;20128;-44
2023/03/23 05:11:54;;;;;;;11.45;1.83;;;16.70;1.00;;;;;;5053179;28;20043;-43
2023/03/23 05:14:21;;;;;;;8.32;2.30;;;16.70;1.00;;;;;;5034821;28;20103;-43
2023/03/23 05:16:57;;;;;;;9.50;2.33;;;16.70;1.00;;;;;;5035196;28;20033;-43
2023/03/23 05:19:25;;;;;;;10.73;1.88;;;16.70;1.00;;;;;;5035243;28;20033;-43
2023/03/23 05:21:53;;;;;;;5.25;1.40;;;16.70;1.00;;;;;;5035261;28;20053;-43
2023/03/23 05:24:19;;;;;;;9.65;2.38;;;16.70;1.00;;;;;;5018029;28;20503;-43
2023/03/23 05:26:48;;;;;;;11.50;2.45;;;16.70;1.00;;;;;;5035051;28;20125;-42
2023/03/23 05:29:17;;;;;;;12.07;2.72;;;16.70;1.00;;;;;;5035173;28;20029;-44
2023/03/23 05:31:55;;;;;;;9.20;2.38;;;16.60;1.00;;;;;;5034881;28;20029;-42
2023/03/23 05:34:22;;;;;;;6.95;2.00;;;16.60;1.00;;;;;;5034136;28;20041;-41
2023/03/23 05:36:57;;;;;;;9.90;1.40;;;16.60;1.00;;;;;;5034860;28;20065;-43
2023/03/23 05:39:55;;;;;;;5.70;1.73;;;16.60;1.00;;;;;;5044098;28;20045;-43
2023/03/23 05:42:35;;;;;;;5.25;1.70;;;16.60;1.00;;;;;;5046020;28;20045;-43
2023/03/23 05:45:13;;;;;;;8.98;1.58;;;16.60;1.00;;;;;;5020110;28;20420;-42
2023/03/23 05:47:40;;;;;;;8.55;2.00;;;16.60;1.00;;;;;;5010614;28;20120;-43
2023/03/23 05:50:10;;;;;;;9.43;1.92;;;16.60;1.00;;;;;;5000108;28;20358;-41
2023/03/23 05:52:38;;;;;;;8.07;1.70;;;16.60;1.00;;;;;;5028289;28;20037;-41
2023/03/23 05:55:08;;;;;;;8.65;2.05;;;16.60;1.00;;;;;;5032993;28;20447;-43
2023/03/23 05:57:36;;;;;;;6.10;2.13;;;16.60;1.00;;;;;;5037612;28;20120;-42
2023/03/23 06:00:14;;;;;;;13.15;1.60;;;16.60;1.00;;;;;;5041921;28;20064;-41
2023/03/23 06:02:45;;;;;;;8.48;2.17;;;16.60;1.00;;;;;;5049857;28;20040;-42
2023/03/23 06:05:16;;;;;;;10.05;3.15;;;16.60;1.00;;;;;;5029011;28;20451;-42
2023/03/23 06:07:47;;;;;;;15.82;2.45;;;16.50;1.00;;;;;;5028009;28;20076;-43
2023/03/23 06:10:14;;;;;;;10.32;3.22;;;16.60;1.00;;;;;;5060021;28;20162;-42
2023/03/23 06:12:44;;;;;;;8.88;2.70;;;16.50;1.00;;;;;;5025356;28;20123;-44
2023/03/23 06:15:29;;;;;;;9.30;2.50;;;16.60;1.00;;;;;;5034178;28;20072;-42
2023/03/23 06:18:33;;;;;;;7.75;2.55;;;16.50;1.00;;;;;;5028726;28;20123;-41
2023/03/23 06:21:38;;;;;;;11.07;2.17;;;16.50;1.00;;;;;;5039376;28;20044;-41
2023/03/23 06:24:12;;;;;;;7.65;1.98;;;16.50;1.00;;;;;;5033494;28;20044;-40
2023/03/23 06:26:40;;;;;;;13.10;2.28;;;16.50;1.00;;;;;;5033789;28;20404;-42
2023/03/23 06:29:12;;;;;;;12.40;2.58;;;16.50;1.00;;;;;;5038256;28;20037;-42
2023/03/23 06:31:56;;;;;;;11.18;3.33;;;16.50;1.00;;;;;;5053188;28;20090;-42
2023/03/23 06:34:25;;;;;;;7.38;2.13;;;16.50;1.00;;;;;;5053330;28;20506;-41
2023/03/23 06:37:26;;;;;;;9.20;2.58;;;16.50;1.00;;;;;;5071596;28;20040;-42
2023/03/23 06:40:11;;;;;;;9.50;2.17;;;16.50;1.00;;;;;;5014308;28;20034;-42
2023/03/23 06:42:39;;;;;;;10.10;2.17;;;16.50;1.00;;;;;;5013310;28;20037;-43
2023/03/23 06:45:23;;;;;;;13.48;2.75;;;16.40;1.00;;;;;;5031299;28;20460;-41
2023/03/23 06:47:57;;;;;;;14.02;3.38;;;16.40;1.00;;;;;;5014133;28;20080;-43
2023/03/23 06:50:22;;;;;;;9.93;2.08;;;16.40;1.00;;;;;;5015421;28;20069;-42
2023/03/23 06:52:50;;;;;;;13.95;2.63;;;16.40;1.00;;;;;;5039997;28;20036;-40
2023/03/23 06:55:17;;;;;;;8.55;2.63;;;16.40;1.00;;;;;;5041811;28;20481;-42
2023/03/23 06:57:44;;;;;;;15.00;2.80;;;16.40;1.00;;;;;;5054858;28;20435;-42
2023/03/23 07:00:13;;;;;;;18.67;3.08;;;16.50;1.00;;;;;;5038355;28;20453;-42
2023/03/23 07:02:40;;;;;;;17.10;3.22;;;16.50;1.00;;;;;;5042016;28;20427;-43
2023/03/23 07:05:11;;;;;;;12.88;2.38;;;16.40;1.00;;;;;;5053689;28;20036;-42
2023/03/23 07:07:38;;;;;;;17.58;4.15;;;16.40;1.00;;;;;;5031894;28;20044;-42
2023/03/23 07:10:16;;;;;;;14.98;2.60;;;16.50;1.00;;;;;;5042194;28;20396;-41
2023/03/23 07:12:43;;;;;;;15.50;3.13;;;16.40;1.00;;;;;;5041605;28;20037;-42
2023/03/23 07:15:10;;;;;;;12.55;2.53;;;16.40;1.00;;;;;;5051464;28;20403;-42
2023/03/23 07:17:39;;;;;;;13.13;3.58;;;16.50;1.00;;;;;;5052523;28;20029;-42
2023/03/23 07:20:21;;;;;;;11.07;3.25;;;16.40;1.00;;;;;;5052994;28;20228;-43
2023/03/23 07:22:47;;;;;;;13.15;2.95;;;16.50;1.00;;;;;;5051689;28;20079;-42
2023/03/23 07:25:40;;;;;;;12.48;3.25;;;16.40;1.00;;;;;;5052664;28;20032;-42
2023/03/23 07:28:08;;;;;;;15.38;3.55;;;16.50;1.00;;;;;;5053333;28;20135;-42
2023/03/23 07:30:34;;;;;;;10.27;2.65;;;16.50;1.00;;;;;;5053298;28;20590;-42
2023/03/23 07:33:04;;;;;;;14.60;2.78;;;16.50;1.00;;;;;;5070540;28;20115;-43
2023/03/23 07:35:31;;;;;;;11.35;3.75;;;16.40;1.00;;;;;;5053360;28;20491;-41
2023/03/23 07:38:02;;;;;;;20.17;4.18;;;16.40;1.00;;;;;;5053341;28;20160;-42
2023/03/23 07:40:28;;;;;;;15.25;3.70;;;16.40;1.00;;;;;;5037245;28;20033;-42
2023/03/23 07:43:01;;;;;;;16.77;4.13;;;16.40;1.00;;;;;;5032902;28;20083;-42
2023/03/23 07:45:56;;;;;;;15.65;3.25;;;16.40;1.00;;;;;;5034712;28;20113;-42
2023/03/23 07:48:26;;;;;;;20.65;3.38;;;16.40;1.00;;;;;;5041140;28;20068;-43
2023/03/23 07:50:52;;;;;;;18.80;4.05;;;16.40;1.00;;;;;;5062144;28;20114;-41
2023/03/23 07:53:18;;;;;;;14.10;3.33;;;16.40;1.00;;;;;;5052066;28;20491;-42
2023/03/23 07:55:53;;;;;;;20.77;4.28;;;16.40;1.00;;;;;;5052996;28;20029;-42
2023/03/23 07:58:51;;;;;;;15.02;3.45;;;16.40;1.00;;;;;;5052988;28;20076;-42
2023/03/23 08:01:18;;;;;;;18.08;4.47;;;16.40;1.00;;;;;;5056611;28;20033;-42
2023/03/23 08:03:59;;;;;;;21.52;3.42;;;16.40;1.00;;;;;;5055890;28;20033;-42
2023/03/23 08:06:43;;;;;;;18.27;3.53;;;16.40;1.00;;;;;;5056329;28;20036;-42
2023/03/23 08:09:36;;;;;;;13.15;3.03;;;16.40;1.00;;;;;;5070362;28;20497;-42
2023/03/23 08:12:20;;;;;;;13.90;4.20;;;16.40;1.00;;;;;;5073933;28;20102;-42
2023/03/23 08:15:21;;;;;;;13.73;3.42;;;16.40;1.00;;;;;;5056583;28;20045;-43
2023/03/23 08:17:47;;;;;;;19.92;3.60;;;16.40;1.00;;;;;;5074634;28;20045;-43
2023/03/23 08:20:40;;;;;;;16.63;4.00;;;16.40;1.00;;;;;;5074055;28;20572;-42
2023/03/23 08:23:29;;;;;;;13.13;3.40;;;16.40;1.00;;;;;;5044604;28;20052;-40
2023/03/23 08:25:54;;;;;;;14.82;2.42;;;16.40;1.00;;;;;;5074268;28;20041;-42
2023/03/23 08:28:30;;;;;;;18.27;3.10;;;16.40;1.00;;;;;;5056216;28;20479;-43
2023/03/23 08:31:15;;;;;;;18.42;4.15;;;16.40;1.00;;;;;;5073940;28;20044;-41
2023/03/23 08:33:56;;;;;;;14.32;3.47;;;16.40;1.00;;;;;;5055341;28;20033;-40
2023/03/23 08:36:43;;;;;;;16.83;4.38;;;16.40;1.00;;;;;;5073893;28;20539;-41
2023/03/23 08:39:35;;;;;;;9.20;2.70;;;16.40;1.00;;;;;;5056103;28;20071;-42
2023/03/23 08:42:15;;;;;;;15.38;3.60;;;16.40;1.00;;;;;;5055441;28;20462;-42
2023/03/23 08:45:07;;;;;;;15.88;3.60;;;16.40;1.00;;;;;;5056018;28;20090;-41
2023/03/23 08:47:54;;;;;;;18.20;4.30;;;16.40;1.00;;;;;;5073598;28;20550;-41
2023/03/23 08:50:39;;;;;;;15.05;2.95;;;16.50;1.00;;;;;;5073857;28;20458;-40
2023/03/23 08:53:15;;;;;;;10.77;3.35;;;16.40;1.00;;;;;;5054928;28;20040;-42
2023/03/23 08:55:44;;;;;;;20.25;3.45;;;16.40;1.00;;;;;;5073545;28;20060;-42
2023/03/23 08:58:10;;;;;;;14.45;3.03;;;16.50;1.00;;;;;;5073713;28;20052;-42
2023/03/23 09:00:52;;;;;;;13.40;3.47;;;16.50;1.00;;;;;;5055217;28;20043;-42
2023/03/23 09:03:45;;;;;;;16.05;2.92;;;16.50;1.00;;;;;;5041592;28;20128;-43
2023/03/23 09:06:34;;;;;;;14.50;3.38;;;16.50;1.00;;;;;;5071884;28;20055;-40
2023/03/23 09:09:00;;;;;;;14.15;3.08;;;16.60;1.00;;;;;;5072984;28;20040;-43
2023/03/23 09:11:26;;;;;;;13.23;3.88;;;16.60;1.00;;;;;;5073421;28;20035;-43
2023/03/23 09:13:52;;;;;;;16.05;2.95;;;16.60;1.00;;;;;;5072412;28;20483;-41
2023/03/23 09:16:18;;;;;;;10.40;3.28;;;16.70;1.00;;;;;;5073129;28;20055;-41
2023/03/23 09:18:43;;;;;;;17.20;3.92;;;16.70;1.00;;;;;;5073298;28;20111;-42
2023/03/23 09:21:09;;;;;;;18.73;3.75;;;16.70;1.00;;;;;;5055178;28;20466;-43
2023/03/23 09:23:35;;;;;;;16.90;3.95;;;16.70;1.00;;;;;;5054337;28;20123;-40
2023/03/23 09:26:03;;;;;;;16.23;4.07;;;16.70;1.00;;;;;;5072945;28;20086;-43
2023/03/23 09:28:28;;;;;;;8.90;2.28;;;16.70;1.00;;;;;;5073060;28;20036;-42
2023/03/23 09:30:57;;;;;;;12.63;3.20;;;16.70;1.00;;;;;;5072882;28;20511;-42
2023/03/23 09:33:24;;;;;;;12.07;3.47;;;16.70;1.00;;;;;;5072124;28;20063;-42
2023/03/23 09:35:50;;;;;;;10.02;3.47;;;16.80;1.00;;;;;;5072746;28;20032;-41
2023/03/23 09:38:15;;;;;;;14.98;4.40;;;16.80;1.00;;;;;;5072632;28;20040;-43
2023/03/23 09:41:15;;;;;;;15.90;3.33;;;16.80;1.00;;;;;;5072697;28;20036;-42
2023/03/23 09:43:59;;;;;;;15.80;2.65;;;16.80;1.00;;;;;;5071997;28;20097;-42
2023/03/23 09:46:43;;;;;;;16.02;3.65;;;16.80;1.00;;;;;;5082589;22;20050;-31
2023/03/23 09:49:17;;;;;;;14.35;2.97;;;16.80;1.00;;;;;;5059711;28;20055;-34
2023/03/23 09:51:42;;;;;;;10.43;3.42;;;16.90;1.00;;;;;;5052509;28;20490;-35
2023/03/23 09:54:22;;;;;;;15.07;3.53;;;16.90;1.00;;;;;;5051770;28;20125;-37
2023/03/23 09:56:51;;;;;;;13.10;3.50;;;16.90;1.00;;;;;;5044823;28;20468;-34
2023/03/23 09:59:36;;;;;;;15.35;3.47;;;17.00;1.00;;;;;;5032705;28;20397;-35
2023/03/23 10:02:13;;;;;;;8.15;2.58;;;17.00;1.00;;;;;;5031151;28;20045;-36
2023/03/23 10:04:54;;;;;;;13.48;2.97;;;17.00;1.00;;;;;;5032012;28;20033;-35
2023/03/23 10:07:23;;;;;;;13.77;3.15;;;17.00;1.00;;;;;;5032362;28;20045;-37
2023/03/23 10:09:53;;;;;;;15.68;3.53;;;17.00;1.00;;;;;;5032469;28;20037;-38
2023/03/23 10:12:42;;;;;;;10.32;2.95;;;17.10;1.00;;;;;;5031871;28;20044;-34
2023/03/23 10:15:28;;;;;;;11.23;3.28;;;17.10;1.00;;;;;;5031172;28;20466;-37
2023/03/23 10:18:01;;;;;;;12.48;3.70;;;17.10;1.00;;;;;;5032112;28;20065;-37
2023/03/23 10:20:30;;;;;;;;;;;17.10;1.00;;;;;;5030755;28;20029;-34
2023/03/23 10:23:24;;;;;;;15.10;2.78;;;17.10;1.00;;;;;;5030186;28;19917;-33
2023/03/23 10:26:29;;;;;;;12.52;3.63;;;17.10;1.00;;;;;;5030829;28;20101;-33
2023/03/23 10:29:01;;;;;;;13.63;3.85;;;17.20;1.00;;;;;;5010567;28;20081;-30
2023/03/23 10:31:35;;;;;;;14.70;2.88;;;17.20;1.00;;;;;;5031801;28;20041;-31
2023/03/23 10:34:39;;;;;;;8.60;2.45;;;17.20;1.00;;;;;;5031312;28;20065;-33
2023/03/23 10:37:45;;;;;;;13.30;2.80;;;17.20;1.00;;;;;;5000603;28;20049;-32
2023/03/23 10:40:19;;;;;;;8.93;2.38;;;17.30;1.00;;;;;;4998322;28;20485;-33
2023/03/23 10:42:46;;;;;;;14.48;2.95;;;17.30;1.00;;;;;;5031159;28;20056;-33
2023/03/23 10:45:29;;;;;;;14.40;3.15;;;17.30;1.00;;;;;;5032260;28;20080;-32
2023/03/23 10:48:36;;;;;;;9.20;2.38;;;17.30;1.00;;;;;;5031734;28;20045;-34
2023/03/23 10:51:06;;;;;;;11.93;2.40;;;17.30;1.00;;;;;;5031733;28;20371;-32
2023/03/23 10:53:38;;;;;;;11.65;3.30;;;17.30;1.00;;;;;;5030981;28;20048;-32
2023/03/23 10:56:18;;;;;;;10.98;2.63;;;17.30;1.00;;;;;;5031791;28;20041;-33
2023/03/23 10:58:45;;;;;;;13.02;3.00;;;17.30;1.00;;;;;;5031837;28;20413;-34
2023/03/23 11:01:12;;;;;;;11.32;2.88;;;17.40;1.00;;;;;;5031563;28;20117;-30
2023/03/23 11:03:49;;;;;;;10.55;2.35;;;17.40;1.00;;;;;;5030956;28;20041;-36
2023/03/23 11:06:26;;;;;;;12.25;3.47;;;17.40;1.00;;;;;;5031307;28;20442;-34
2023/03/23 11:09:13;;;;;;;11.68;2.55;;;17.40;1.00;;;;;;5031764;28;20171;-37
2023/03/23 11:11:42;;;;;;;11.07;2.50;;;17.40;1.00;;;;;;5031505;28;20045;-36
2023/03/23 11:14:17;;;;;;;12.98;2.67;;;17.40;1.00;;;;;;5030945;28;20038;-37
2023/03/23 11:16:49;;;;;;;8.75;2.58;;;17.40;1.00;;;;;;5031472;28;20092;-32
2023/03/23 11:19:25;;;;;;;17.83;2.72;;;17.40;1.00;;;;;;5031454;28;20075;-32
2023/03/23 11:21:53;;;;;;;12.40;2.72;;;17.40;1.00;;;;;;5031311;28;20508;-31
2023/03/23 11:24:23;;;;;;;9.48;2.83;;;17.40;1.00;;;;;;5030831;28;20095;-33
2023/03/23 11:26:51;;;;;;;13.07;2.80;;;17.40;1.00;;;;;;5030319;28;20064;-32
2023/03/23 11:29:26;;;;;;;10.93;2.13;;;17.40;1.00;;;;;;5031636;28;20041;-34
2023/03/23 11:32:00;;;;;;;11.27;2.78;;;17.40;1.00;;;;;;5034104;28;20060;-38
2023/03/23 11:34:44;;;;;;;13.25;3.67;;;17.40;1.00;;;;;;5034488;28;20030;-34
2023/03/23 11:37:17;;;;;;;11.00;2.78;;;17.40;1.00;;;;;;5033933;28;20060;-34
2023/03/23 11:39:53;;;;;;;10.57;2.80;;;17.40;1.00;;;;;;5035248;28;20041;-34
2023/03/23 11:42:34;;;;;;;13.10;3.17;;;17.40;1.00;;;;;;5034668;28;20072;-35
2023/03/23 11:45:56;;;;;;;13.20;2.75;;;17.40;1.00;;;;;;5034697;28;20033;-33
2023/03/23 11:48:22;;;;;;;10.93;2.20;;;17.40;1.00;;;;;;5003887;28;20084;-34
2023/03/23 11:50:50;;;;;;;18.20;3.10;;;17.40;1.00;;;;;;5034867;28;20073;-32
2023/03/23 11:53:52;;;;;;;15.40;3.15;;;17.40;1.00;;;;;;5033655;28;20044;-38
2023/03/23 11:56:26;;;;;;;17.40;3.25;;;17.40;1.00;;;;;;5003700;28;20404;-37
2023/03/23 11:58:55;;;;;;;11.32;2.25;;;17.40;1.00;;;;;;5034824;28;20483;-35
2023/03/23 12:01:20;;;;;;;12.55;3.15;;;17.40;1.00;;;;;;5034758;28;20057;-33
2023/03/23 12:04:11;;;;;;;9.73;2.40;;;17.40;1.00;;;;;;5034009;28;20468;-31
2023/03/23 12:07:32;;;;;;;9.52;2.95;;;17.40;1.00;;;;;;5034434;28;20037;-31
2023/03/23 12:10:25;;;;;;;9.23;2.58;;;17.40;1.00;;;;;;5001228;28;20144;-33
2023/03/23 12:13:05;;;;;;;12.27;2.60;;;17.40;1.00;;;;;;5032471;28;20041;-34
2023/03/23 12:15:45;;;;;;;12.63;3.17;;;17.40;1.00;;;;;;5034592;28;20029;-34
2023/03/23 12:18:25;;;;;;;11.32;2.83;;;17.40;1.00;;;;;;5034904;28;20462;-34
2023/03/23 12:20:59;;;;;;;14.20;3.25;;;17.30;1.00;;;;;;5034490;28;20041;-35
2023/03/23 12:23:37;;;;;;;11.98;2.72;;;17.30;1.00;;;;;;5033614;28;20545;-33
2023/03/23 12:26:30;;;;;;;12.43;2.90;;;17.30;1.00;;;;;;5032895;28;20519;-34
2023/03/23 12:29:29;;;;;;;10.15;2.70;;;17.30;1.00;;;;;;5034338;28;20041;-35
2023/03/23 12:31:58;;;;;;;8.73;2.47;;;17.30;1.00;;;;;;5034072;28;20048;-32
2023/03/23 12:34:45;;;;;;;15.60;3.30;;;17.30;1.00;;;;;;5033477;28;20478;-31
2023/03/23 12:37:26;;;;;;;11.98;2.63;;;17.30;1.00;;;;;;5034040;28;20386;-34
2023/03/23 12:39:58;;;;;;;10.00;2.50;;;17.30;1.00;;;;;;5034199;28;20029;-38
2023/03/23 12:42:47;;;;;;;13.15;2.42;;;17.30;1.00;;;;;;5032756;28;20042;-37
2023/03/23 12:45:23;;;;;;;9.55;3.13;;;17.30;1.00;;;;;;5034065;28;20076;-39
2023/03/23 12:47:56;;;;;;;15.65;3.10;;;17.30;1.00;;;;;;5033784;28;20041;-36
2023/03/23 12:50:33;;;;;;;11.40;2.95;;;17.30;1.00;;;;;;5032691;28;20065;-36
2023/03/23 12:53:16;;;;;;;8.40;2.65;;;17.30;1.00;;;;;;5032953;28;20128;-37
2023/03/23 12:55:49;;;;;;;13.65;3.70;;;17.30;1.00;;;;;;5033749;28;20513;-35
2023/03/23 12:58:28;;;;;;;10.73;2.92;;;17.30;1.00;;;;;;5033744;28;20440;-34
2023/03/23 13:01:14;;;;;;;10.55;2.45;;;17.30;1.00;;;;;;5033674;28;20033;-35
2023/03/23 13:04:01;;;;;;;10.30;2.90;;;17.30;1.00;;;;;;5032790;28;20045;-31
2023/03/23 13:06:41;;;;;;;13.75;3.08;;;17.30;1.00;;;;;;5033434;28;20029;-34
2023/03/23 13:09:35;;;;;;;13.80;3.72;;;17.30;1.00;;;;;;5033691;28;20120;-33
2023/03/23 13:12:04;;;;;;;14.50;3.20;;;17.20;1.00;;;;;;5033327;28;20045;-35
2023/03/23 13:14:39;;;;;;;11.55;4.25;;;17.20;1.00;;;;;;5032699;28;20409;-31
2023/03/23 13:17:40;;;;;;;10.18;2.47;;;17.30;1.00;;;;;;5033259;28;20033;-38
2023/03/23 13:20:33;;;;;;;13.25;2.95;;;17.20;1.00;;;;;;5033445;28;20037;-32
2023/03/23 13:23:11;;;;;;;13.35;3.05;;;17.20;1.00;;;;;;5032477;28;20064;-31
2023/03/23 13:25:43;;;;;;;10.75;2.20;;;17.30;1.00;;;;;;5033235;28;20046;-35
2023/03/23 13:28:22;;;;;;;12.55;2.92;;;17.20;1.00;;;;;;5033223;28;20390;-36
2023/03/23 13:31:10;;;;;;;8.35;2.42;;;17.20;1.00;;;;;;5033122;28;20478;-34
2023/03/23 13:33:36;;;;;;;12.68;3.75;;;17.30;1.00;;;;;;5032335;28;20045;-35